sensor_id;sensor_type;location;lat;lon;timestamp;P1;durP1;ratioP1;P2;durP2;ratioP2
60464;SDS011;46314;52.392;9.758;2022-10-17T00:01:51;6.68;;;3.42;;
60464;SDS011;46314;52.392;9.758;2022-10-17T00:04:17;6.18;;;3.38;;
60464;SDS011;46314;52.392;9.758;2022-10-17T00:06:45;4.32;;;3.33;;
60464;SDS011;46314;52.392;9.758;2022-10-17T00:09:12;4.80;;;3.10;;
60464;SDS011;46314;52.392;9.758;2022-10-17T00:11:38;3.00;;;2.63;;
60464;SDS011;46314;52.392;9.758;2022-10-17T00:14:05;3.65;;;3.10;;
60464;SDS011;46314;52.392;9.758;2022-10-17T00:16:32;5.05;;;3.03;;
60464;SDS011;46314;52.392;9.758;2022-10-17T00:19:00;9.00;;;2.58;;
60464;SDS011;46314;52.392;9.758;2022-10-17T00:21:26;4.20;;;3.63;;
60464;SDS011;46314;52.392;9.758;2022-10-17T00:23:54;6.38;;;2.88;;
60464;SDS011;46314;52.392;9.758;2022-10-17T00:26:21;4.72;;;3.47;;
60464;SDS011;46314;52.392;9.758;2022-10-17T00:28:48;7.05;;;3.63;;
60464;SDS011;46314;52.392;9.758;2022-10-17T00:31:15;4.78;;;3.50;;
60464;SDS011;46314;52.392;9.758;2022-10-17T00:33:43;6.60;;;3.30;;
60464;SDS011;46314;52.392;9.758;2022-10-17T00:36:11;6.05;;;3.67;;
60464;SDS011;46314;52.392;9.758;2022-10-17T00:38:39;6.32;;;3.65;;
60464;SDS011;46314;52.392;9.758;2022-10-17T00:41:08;4.10;;;3.65;;
60464;SDS011;46314;52.392;9.758;2022-10-17T00:43:52;5.22;;;4.07;;
60464;SDS011;46314;52.392;9.758;2022-10-17T00:46:22;5.13;;;3.38;;
60464;SDS011;46314;52.392;9.758;2022-10-17T00:48:51;4.93;;;3.58;;
60464;SDS011;46314;52.392;9.758;2022-10-17T00:51:20;6.38;;;3.90;;
60464;SDS011;46314;52.392;9.758;2022-10-17T00:53:50;6.45;;;4.20;;
60464;SDS011;46314;52.392;9.758;2022-10-17T00:56:18;5.78;;;4.32;;
60464;SDS011;46314;52.392;9.758;2022-10-17T00:58:46;8.65;;;4.05;;
60464;SDS011;46314;52.392;9.758;2022-10-17T01:01:12;7.07;;;3.95;;
60464;SDS011;46314;52.392;9.758;2022-10-17T01:03:39;7.63;;;4.03;;
60464;SDS011;46314;52.392;9.758;2022-10-17T01:06:06;7.70;;;4.82;;
60464;SDS011;46314;52.392;9.758;2022-10-17T01:08:32;9.45;;;4.60;;
60464;SDS011;46314;52.392;9.758;2022-10-17T01:11:00;9.60;;;5.47;;
60464;SDS011;46314;52.392;9.758;2022-10-17T01:13:38;7.25;;;4.65;;
60464;SDS011;46314;52.392;9.758;2022-10-17T01:16:10;9.60;;;4.57;;
60464;SDS011;46314;52.392;9.758;2022-10-17T01:18:50;10.43;;;4.78;;
60464;SDS011;46314;52.392;9.758;2022-10-17T01:21:29;8.68;;;5.10;;
60464;SDS011;46314;52.392;9.758;2022-10-17T01:24:02;9.05;;;4.72;;
60464;SDS011;46314;52.392;9.758;2022-10-17T01:26:58;9.93;;;5.05;;
60464;SDS011;46314;52.392;9.758;2022-10-17T01:29:51;10.98;;;5.13;;
60464;SDS011;46314;52.392;9.758;2022-10-17T01:32:27;13.52;;;5.55;;
60464;SDS011;46314;52.392;9.758;2022-10-17T01:34:59;10.85;;;5.03;;
60464;SDS011;46314;52.392;9.758;2022-10-17T01:37:35;9.20;;;5.07;;
60464;SDS011;46314;52.392;9.758;2022-10-17T01:40:09;8.40;;;5.00;;
60464;SDS011;46314;52.392;9.758;2022-10-17T01:42:41;7.80;;;5.28;;
60464;SDS011;46314;52.392;9.758;2022-10-17T01:45:11;6.93;;;4.20;;
60464;SDS011;46314;52.392;9.758;2022-10-17T01:47:44;9.23;;;4.82;;
60464;SDS011;46314;52.392;9.758;2022-10-17T01:50:14;8.73;;;5.13;;
60464;SDS011;46314;52.392;9.758;2022-10-17T01:52:45;7.22;;;5.50;;
60464;SDS011;46314;52.392;9.758;2022-10-17T01:55:17;10.65;;;5.30;;
60464;SDS011;46314;52.392;9.758;2022-10-17T01:57:48;9.50;;;4.90;;
60464;SDS011;46314;52.392;9.758;2022-10-17T02:00:18;7.95;;;4.60;;
60464;SDS011;46314;52.392;9.758;2022-10-17T02:02:50;8.77;;;4.65;;
60464;SDS011;46314;52.392;9.758;2022-10-17T02:05:21;6.43;;;4.72;;
60464;SDS011;46314;52.392;9.758;2022-10-17T02:07:51;9.32;;;5.32;;
60464;SDS011;46314;52.392;9.758;2022-10-17T02:10:19;7.63;;;4.60;;
60464;SDS011;46314;52.392;9.758;2022-10-17T02:12:58;9.50;;;5.00;;
60464;SDS011;46314;52.392;9.758;2022-10-17T02:15:33;8.50;;;5.68;;
60464;SDS011;46314;52.392;9.758;2022-10-17T02:18:15;12.95;;;5.50;;
60464;SDS011;46314;52.392;9.758;2022-10-17T02:20:55;13.48;;;5.53;;
60464;SDS011;46314;52.392;9.758;2022-10-17T02:23:26;8.60;;;4.93;;
60464;SDS011;46314;52.392;9.758;2022-10-17T02:26:03;8.48;;;4.95;;
60464;SDS011;46314;52.392;9.758;2022-10-17T02:28:36;7.85;;;5.90;;
60464;SDS011;46314;52.392;9.758;2022-10-17T02:31:12;6.10;;;4.53;;
60464;SDS011;46314;52.392;9.758;2022-10-17T02:33:42;8.27;;;5.88;;
60464;SDS011;46314;52.392;9.758;2022-10-17T02:36:16;8.60;;;4.65;;
60464;SDS011;46314;52.392;9.758;2022-10-17T02:38:46;9.68;;;4.85;;
60464;SDS011;46314;52.392;9.758;2022-10-17T02:41:15;7.60;;;4.57;;
60464;SDS011;46314;52.392;9.758;2022-10-17T02:43:44;8.50;;;4.35;;
60464;SDS011;46314;52.392;9.758;2022-10-17T02:46:14;9.13;;;5.28;;
60464;SDS011;46314;52.392;9.758;2022-10-17T02:48:46;7.40;;;4.25;;
60464;SDS011;46314;52.392;9.758;2022-10-17T02:51:17;7.07;;;4.53;;
60464;SDS011;46314;52.392;9.758;2022-10-17T02:53:52;6.22;;;4.40;;
60464;SDS011;46314;52.392;9.758;2022-10-17T02:56:26;9.27;;;4.78;;
60464;SDS011;46314;52.392;9.758;2022-10-17T02:58:56;8.85;;;4.82;;
60464;SDS011;46314;52.392;9.758;2022-10-17T03:01:24;7.93;;;4.07;;
60464;SDS011;46314;52.392;9.758;2022-10-17T03:04:04;7.32;;;4.25;;
60464;SDS011;46314;52.392;9.758;2022-10-17T03:06:31;8.85;;;4.72;;
60464;SDS011;46314;52.392;9.758;2022-10-17T03:08:58;9.75;;;4.68;;
60464;SDS011;46314;52.392;9.758;2022-10-17T03:11:24;7.03;;;4.50;;
60464;SDS011;46314;52.392;9.758;2022-10-17T03:13:50;9.32;;;4.35;;
60464;SDS011;46314;52.392;9.758;2022-10-17T03:16:17;5.47;;;4.10;;
60464;SDS011;46314;52.392;9.758;2022-10-17T03:18:43;5.85;;;4.40;;
60464;SDS011;46314;52.392;9.758;2022-10-17T03:21:16;6.40;;;4.10;;
60464;SDS011;46314;52.392;9.758;2022-10-17T03:23:43;7.68;;;4.55;;
60464;SDS011;46314;52.392;9.758;2022-10-17T03:26:09;9.10;;;5.00;;
60464;SDS011;46314;52.392;9.758;2022-10-17T03:28:36;4.53;;;3.60;;
60464;SDS011;46314;52.392;9.758;2022-10-17T03:31:06;8.85;;;4.13;;
60464;SDS011;46314;52.392;9.758;2022-10-17T03:33:34;8.05;;;4.75;;
60464;SDS011;46314;52.392;9.758;2022-10-17T03:36:03;5.90;;;4.43;;
60464;SDS011;46314;52.392;9.758;2022-10-17T03:38:32;6.03;;;4.07;;
60464;SDS011;46314;52.392;9.758;2022-10-17T03:40:58;6.40;;;4.13;;
60464;SDS011;46314;52.392;9.758;2022-10-17T03:43:24;6.78;;;4.43;;
60464;SDS011;46314;52.392;9.758;2022-10-17T03:45:51;5.32;;;4.20;;
60464;SDS011;46314;52.392;9.758;2022-10-17T03:48:17;7.32;;;4.47;;
60464;SDS011;46314;52.392;9.758;2022-10-17T03:50:44;6.53;;;3.90;;
60464;SDS011;46314;52.392;9.758;2022-10-17T03:53:10;5.45;;;4.18;;
60464;SDS011;46314;52.392;9.758;2022-10-17T03:55:38;6.40;;;4.22;;
60464;SDS011;46314;52.392;9.758;2022-10-17T03:58:04;4.63;;;4.22;;
60464;SDS011;46314;52.392;9.758;2022-10-17T04:00:31;7.55;;;4.80;;
60464;SDS011;46314;52.392;9.758;2022-10-17T04:02:57;5.53;;;4.95;;
60464;SDS011;46314;52.392;9.758;2022-10-17T04:05:24;6.32;;;4.07;;
60464;SDS011;46314;52.392;9.758;2022-10-17T04:07:50;6.55;;;4.57;;
60464;SDS011;46314;52.392;9.758;2022-10-17T04:10:17;7.45;;;4.82;;
60464;SDS011;46314;52.392;9.758;2022-10-17T04:12:44;7.05;;;4.65;;
60464;SDS011;46314;52.392;9.758;2022-10-17T04:15:11;5.30;;;4.80;;
60464;SDS011;46314;52.392;9.758;2022-10-17T04:17:37;6.72;;;5.47;;
60464;SDS011;46314;52.392;9.758;2022-10-17T04:20:04;7.35;;;4.93;;
60464;SDS011;46314;52.392;9.758;2022-10-17T04:22:32;6.78;;;4.60;;
60464;SDS011;46314;52.392;9.758;2022-10-17T04:24:58;5.95;;;4.43;;
60464;SDS011;46314;52.392;9.758;2022-10-17T04:27:24;5.75;;;4.60;;
60464;SDS011;46314;52.392;9.758;2022-10-17T04:29:52;4.78;;;4.25;;
60464;SDS011;46314;52.392;9.758;2022-10-17T04:32:19;6.30;;;4.97;;
60464;SDS011;46314;52.392;9.758;2022-10-17T04:34:47;4.88;;;4.43;;
60464;SDS011;46314;52.392;9.758;2022-10-17T04:37:13;7.88;;;4.32;;
60464;SDS011;46314;52.392;9.758;2022-10-17T04:39:40;5.68;;;4.45;;
60464;SDS011;46314;52.392;9.758;2022-10-17T04:42:06;8.65;;;4.20;;
60464;SDS011;46314;52.392;9.758;2022-10-17T04:44:33;5.88;;;4.78;;
60464;SDS011;46314;52.392;9.758;2022-10-17T04:47:00;5.03;;;4.45;;
60464;SDS011;46314;52.392;9.758;2022-10-17T04:49:27;4.80;;;4.40;;
60464;SDS011;46314;52.392;9.758;2022-10-17T04:51:53;5.20;;;4.70;;
60464;SDS011;46314;52.392;9.758;2022-10-17T04:54:20;4.45;;;4.05;;
60464;SDS011;46314;52.392;9.758;2022-10-17T04:56:46;7.38;;;5.20;;
60464;SDS011;46314;52.392;9.758;2022-10-17T04:59:13;6.18;;;4.55;;
60464;SDS011;46314;52.392;9.758;2022-10-17T05:01:39;7.97;;;5.13;;
60464;SDS011;46314;52.392;9.758;2022-10-17T05:04:07;7.35;;;4.60;;
60464;SDS011;46314;52.392;9.758;2022-10-17T05:06:34;6.30;;;4.63;;
60464;SDS011;46314;52.392;9.758;2022-10-17T05:09:00;6.50;;;4.40;;
60464;SDS011;46314;52.392;9.758;2022-10-17T05:11:27;5.90;;;4.60;;
60464;SDS011;46314;52.392;9.758;2022-10-17T05:13:55;5.28;;;4.10;;
60464;SDS011;46314;52.392;9.758;2022-10-17T05:16:23;5.18;;;4.63;;
60464;SDS011;46314;52.392;9.758;2022-10-17T05:18:51;7.57;;;4.50;;
60464;SDS011;46314;52.392;9.758;2022-10-17T05:21:20;4.78;;;4.30;;
60464;SDS011;46314;52.392;9.758;2022-10-17T05:23:48;7.13;;;4.75;;
60464;SDS011;46314;52.392;9.758;2022-10-17T05:26:15;6.90;;;4.35;;
60464;SDS011;46314;52.392;9.758;2022-10-17T05:28:42;5.13;;;4.35;;
60464;SDS011;46314;52.392;9.758;2022-10-17T05:31:09;10.60;;;4.63;;
60464;SDS011;46314;52.392;9.758;2022-10-17T05:33:36;4.30;;;3.90;;
60464;SDS011;46314;52.392;9.758;2022-10-17T05:36:04;7.20;;;5.15;;
60464;SDS011;46314;52.392;9.758;2022-10-17T05:38:33;7.70;;;5.32;;
60464;SDS011;46314;52.392;9.758;2022-10-17T05:41:00;7.55;;;4.00;;
60464;SDS011;46314;52.392;9.758;2022-10-17T05:43:27;7.50;;;4.30;;
60464;SDS011;46314;52.392;9.758;2022-10-17T05:45:54;8.93;;;4.70;;
60464;SDS011;46314;52.392;9.758;2022-10-17T05:48:21;12.13;;;4.70;;
60464;SDS011;46314;52.392;9.758;2022-10-17T05:50:49;5.15;;;4.22;;
60464;SDS011;46314;52.392;9.758;2022-10-17T05:53:15;6.68;;;4.13;;
60464;SDS011;46314;52.392;9.758;2022-10-17T05:55:43;5.32;;;3.13;;
60464;SDS011;46314;52.392;9.758;2022-10-17T05:58:10;9.15;;;3.83;;
60464;SDS011;46314;52.392;9.758;2022-10-17T06:00:47;4.85;;;3.65;;
60464;SDS011;46314;52.392;9.758;2022-10-17T06:03:14;3.78;;;3.47;;
60464;SDS011;46314;52.392;9.758;2022-10-17T06:05:40;4.15;;;3.75;;
60464;SDS011;46314;52.392;9.758;2022-10-17T06:08:07;7.38;;;3.67;;
60464;SDS011;46314;52.392;9.758;2022-10-17T06:10:33;4.30;;;3.90;;
60464;SDS011;46314;52.392;9.758;2022-10-17T06:13:01;7.10;;;3.80;;
60464;SDS011;46314;52.392;9.758;2022-10-17T06:15:27;5.57;;;4.00;;
60464;SDS011;46314;52.392;9.758;2022-10-17T06:17:54;4.78;;;3.72;;
60464;SDS011;46314;52.392;9.758;2022-10-17T06:20:20;6.82;;;4.13;;
60464;SDS011;46314;52.392;9.758;2022-10-17T06:22:47;4.65;;;3.80;;
60464;SDS011;46314;52.392;9.758;2022-10-17T06:25:13;5.53;;;3.65;;
60464;SDS011;46314;52.392;9.758;2022-10-17T06:27:40;6.65;;;3.88;;
60464;SDS011;46314;52.392;9.758;2022-10-17T06:30:08;5.47;;;4.35;;
60464;SDS011;46314;52.392;9.758;2022-10-17T06:32:35;6.47;;;4.05;;
60464;SDS011;46314;52.392;9.758;2022-10-17T06:35:01;5.63;;;4.25;;
60464;SDS011;46314;52.392;9.758;2022-10-17T06:37:29;5.13;;;4.00;;
60464;SDS011;46314;52.392;9.758;2022-10-17T06:40:01;6.65;;;4.70;;
60464;SDS011;46314;52.392;9.758;2022-10-17T06:42:28;4.68;;;4.28;;
60464;SDS011;46314;52.392;9.758;2022-10-17T06:44:54;8.65;;;4.22;;
60464;SDS011;46314;52.392;9.758;2022-10-17T06:47:22;5.80;;;3.70;;
60464;SDS011;46314;52.392;9.758;2022-10-17T06:49:48;7.18;;;4.10;;
60464;SDS011;46314;52.392;9.758;2022-10-17T06:52:15;6.32;;;3.70;;
60464;SDS011;46314;52.392;9.758;2022-10-17T06:54:41;3.88;;;3.47;;
60464;SDS011;46314;52.392;9.758;2022-10-17T06:57:08;5.97;;;3.67;;
60464;SDS011;46314;52.392;9.758;2022-10-17T06:59:35;4.05;;;3.40;;
60464;SDS011;46314;52.392;9.758;2022-10-17T07:02:01;5.00;;;3.38;;
60464;SDS011;46314;52.392;9.758;2022-10-17T07:04:29;3.70;;;3.17;;
60464;SDS011;46314;52.392;9.758;2022-10-17T07:06:56;6.60;;;3.80;;
60464;SDS011;46314;52.392;9.758;2022-10-17T07:09:24;7.30;;;3.75;;
60464;SDS011;46314;52.392;9.758;2022-10-17T07:11:50;4.55;;;3.50;;
60464;SDS011;46314;52.392;9.758;2022-10-17T07:14:16;4.85;;;3.47;;
60464;SDS011;46314;52.392;9.758;2022-10-17T07:16:43;7.78;;;4.13;;
60464;SDS011;46314;52.392;9.758;2022-10-17T07:19:09;5.03;;;3.80;;
60464;SDS011;46314;52.392;9.758;2022-10-17T07:21:37;6.65;;;3.92;;
60464;SDS011;46314;52.392;9.758;2022-10-17T07:24:04;5.38;;;3.30;;
60464;SDS011;46314;52.392;9.758;2022-10-17T07:26:31;4.10;;;3.10;;
60464;SDS011;46314;52.392;9.758;2022-10-17T07:28:58;5.85;;;3.15;;
60464;SDS011;46314;52.392;9.758;2022-10-17T07:31:24;5.35;;;3.70;;
60464;SDS011;46314;52.392;9.758;2022-10-17T07:33:51;6.78;;;3.30;;
60464;SDS011;46314;52.392;9.758;2022-10-17T07:36:17;5.38;;;3.83;;
60464;SDS011;46314;52.392;9.758;2022-10-17T07:38:45;5.35;;;3.63;;
60464;SDS011;46314;52.392;9.758;2022-10-17T07:41:11;4.28;;;3.13;;
60464;SDS011;46314;52.392;9.758;2022-10-17T07:43:44;8.73;;;3.88;;
60464;SDS011;46314;52.392;9.758;2022-10-17T07:46:11;4.80;;;3.30;;
60464;SDS011;46314;52.392;9.758;2022-10-17T07:48:37;5.88;;;3.40;;
60464;SDS011;46314;52.392;9.758;2022-10-17T07:51:05;5.70;;;3.60;;
60464;SDS011;46314;52.392;9.758;2022-10-17T07:53:33;7.45;;;4.18;;
60464;SDS011;46314;52.392;9.758;2022-10-17T07:56:03;5.72;;;3.50;;
60464;SDS011;46314;52.392;9.758;2022-10-17T07:58:30;5.20;;;3.28;;
60464;SDS011;46314;52.392;9.758;2022-10-17T08:00:59;8.77;;;3.95;;
60464;SDS011;46314;52.392;9.758;2022-10-17T08:03:31;14.77;;;4.50;;
60464;SDS011;46314;52.392;9.758;2022-10-17T08:05:57;4.85;;;3.63;;
60464;SDS011;46314;52.392;9.758;2022-10-17T08:08:24;9.02;;;3.70;;
60464;SDS011;46314;52.392;9.758;2022-10-17T08:10:51;7.07;;;3.40;;
60464;SDS011;46314;52.392;9.758;2022-10-17T08:13:19;4.38;;;3.28;;
60464;SDS011;46314;52.392;9.758;2022-10-17T08:15:46;6.10;;;4.15;;
60464;SDS011;46314;52.392;9.758;2022-10-17T08:18:13;4.95;;;3.22;;
60464;SDS011;46314;52.392;9.758;2022-10-17T08:20:39;5.30;;;3.35;;
60464;SDS011;46314;52.392;9.758;2022-10-17T08:23:06;3.78;;;2.95;;
60464;SDS011;46314;52.392;9.758;2022-10-17T08:25:32;4.78;;;3.35;;
60464;SDS011;46314;52.392;9.758;2022-10-17T08:27:59;5.18;;;3.58;;
60464;SDS011;46314;52.392;9.758;2022-10-17T08:30:26;4.70;;;3.45;;
60464;SDS011;46314;52.392;9.758;2022-10-17T08:32:53;6.65;;;3.42;;
60464;SDS011;46314;52.392;9.758;2022-10-17T08:35:19;9.05;;;4.15;;
60464;SDS011;46314;52.392;9.758;2022-10-17T08:37:46;5.63;;;3.33;;
60464;SDS011;46314;52.392;9.758;2022-10-17T08:40:14;6.22;;;3.70;;
60464;SDS011;46314;52.392;9.758;2022-10-17T08:45:34;6.18;;;3.30;;
60464;SDS011;46314;52.392;9.758;2022-10-17T08:48:07;4.07;;;3.05;;
60464;SDS011;46314;52.392;9.758;2022-10-17T08:50:38;5.53;;;3.70;;
60464;SDS011;46314;52.392;9.758;2022-10-17T08:53:11;4.90;;;3.83;;
60464;SDS011;46314;52.392;9.758;2022-10-17T08:58:11;8.15;;;3.45;;
60464;SDS011;46314;52.392;9.758;2022-10-17T09:00:41;6.35;;;3.38;;
60464;SDS011;46314;52.392;9.758;2022-10-17T09:03:28;7.28;;;3.75;;
60464;SDS011;46314;52.392;9.758;2022-10-17T09:06:16;6.72;;;3.38;;
60464;SDS011;46314;52.392;9.758;2022-10-17T09:08:48;6.97;;;3.63;;
60464;SDS011;46314;52.392;9.758;2022-10-17T09:11:35;6.95;;;3.80;;
60464;SDS011;46314;52.392;9.758;2022-10-17T09:14:17;9.02;;;3.50;;
60464;SDS011;46314;52.392;9.758;2022-10-17T09:17:01;6.65;;;3.60;;
60464;SDS011;46314;52.392;9.758;2022-10-17T09:19:38;9.05;;;4.28;;
60464;SDS011;46314;52.392;9.758;2022-10-17T09:22:08;5.10;;;3.50;;
60464;SDS011;46314;52.392;9.758;2022-10-17T09:24:40;4.45;;;3.92;;
60464;SDS011;46314;52.392;9.758;2022-10-17T09:27:14;5.68;;;3.55;;
60464;SDS011;46314;52.392;9.758;2022-10-17T09:29:47;5.82;;;3.50;;
60464;SDS011;46314;52.392;9.758;2022-10-17T09:32:18;4.80;;;3.42;;
60464;SDS011;46314;52.392;9.758;2022-10-17T09:34:48;8.32;;;3.85;;
60464;SDS011;46314;52.392;9.758;2022-10-17T09:37:16;4.68;;;3.70;;
60464;SDS011;46314;52.392;9.758;2022-10-17T09:39:44;7.70;;;3.60;;
60464;SDS011;46314;52.392;9.758;2022-10-17T09:42:11;4.90;;;3.17;;
60464;SDS011;46314;52.392;9.758;2022-10-17T09:44:41;5.93;;;3.53;;
60464;SDS011;46314;52.392;9.758;2022-10-17T09:47:21;4.82;;;3.42;;
60464;SDS011;46314;52.392;9.758;2022-10-17T09:49:53;8.57;;;4.03;;
60464;SDS011;46314;52.392;9.758;2022-10-17T09:52:20;8.52;;;3.63;;
60464;SDS011;46314;52.392;9.758;2022-10-17T09:54:51;5.72;;;3.22;;
60464;SDS011;46314;52.392;9.758;2022-10-17T09:57:20;5.72;;;3.45;;
60464;SDS011;46314;52.392;9.758;2022-10-17T09:59:56;5.82;;;3.25;;
60464;SDS011;46314;52.392;9.758;2022-10-17T10:02:26;5.40;;;3.60;;
60464;SDS011;46314;52.392;9.758;2022-10-17T10:04:58;6.78;;;3.35;;
60464;SDS011;46314;52.392;9.758;2022-10-17T10:07:32;5.40;;;3.50;;
60464;SDS011;46314;52.392;9.758;2022-10-17T10:10:01;7.35;;;3.50;;
60464;SDS011;46314;52.392;9.758;2022-10-17T10:12:29;4.57;;;3.28;;
60464;SDS011;46314;52.392;9.758;2022-10-17T10:14:58;7.68;;;3.38;;
60464;SDS011;46314;52.392;9.758;2022-10-17T10:17:28;6.35;;;3.67;;
60464;SDS011;46314;52.392;9.758;2022-10-17T10:20:03;8.30;;;3.95;;
60464;SDS011;46314;52.392;9.758;2022-10-17T10:23:04;7.05;;;3.08;;
60464;SDS011;46314;52.392;9.758;2022-10-17T10:25:32;8.23;;;3.60;;
60464;SDS011;46314;52.392;9.758;2022-10-17T10:27:59;6.78;;;3.75;;
60464;SDS011;46314;52.392;9.758;2022-10-17T10:30:27;6.43;;;3.65;;
60464;SDS011;46314;52.392;9.758;2022-10-17T10:33:01;11.27;;;4.47;;
60464;SDS011;46314;52.392;9.758;2022-10-17T10:35:29;5.28;;;3.40;;
60464;SDS011;46314;52.392;9.758;2022-10-17T10:37:57;5.68;;;3.10;;
60464;SDS011;46314;52.392;9.758;2022-10-17T10:40:28;4.93;;;3.00;;
60464;SDS011;46314;52.392;9.758;2022-10-17T10:42:59;9.52;;;3.72;;
60464;SDS011;46314;52.392;9.758;2022-10-17T10:45:38;6.85;;;3.60;;
60464;SDS011;46314;52.392;9.758;2022-10-17T10:50:46;5.70;;;2.97;;
60464;SDS011;46314;52.392;9.758;2022-10-17T10:53:31;4.93;;;3.35;;
60464;SDS011;46314;52.392;9.758;2022-10-17T10:56:06;7.00;;;3.97;;
60464;SDS011;46314;52.392;9.758;2022-10-17T10:58:40;7.65;;;3.85;;
60464;SDS011;46314;52.392;9.758;2022-10-17T11:01:16;8.10;;;3.55;;
60464;SDS011;46314;52.392;9.758;2022-10-17T11:03:54;4.68;;;3.55;;
60464;SDS011;46314;52.392;9.758;2022-10-17T11:06:29;6.38;;;3.40;;
60464;SDS011;46314;52.392;9.758;2022-10-17T11:09:04;8.02;;;3.63;;
60464;SDS011;46314;52.392;9.758;2022-10-17T11:11:44;7.35;;;3.28;;
60464;SDS011;46314;52.392;9.758;2022-10-17T11:14:17;6.03;;;3.70;;
60464;SDS011;46314;52.392;9.758;2022-10-17T11:19:22;5.22;;;3.35;;
60464;SDS011;46314;52.392;9.758;2022-10-17T11:21:55;7.18;;;3.45;;
60464;SDS011;46314;52.392;9.758;2022-10-17T11:24:33;4.20;;;3.15;;
60464;SDS011;46314;52.392;9.758;2022-10-17T11:27:05;6.22;;;3.45;;
60464;SDS011;46314;52.392;9.758;2022-10-17T11:29:33;10.25;;;3.42;;
60464;SDS011;46314;52.392;9.758;2022-10-17T11:32:02;6.65;;;3.20;;
60464;SDS011;46314;52.392;9.758;2022-10-17T11:34:35;7.30;;;2.80;;
60464;SDS011;46314;52.392;9.758;2022-10-17T11:37:08;5.47;;;3.38;;
60464;SDS011;46314;52.392;9.758;2022-10-17T11:39:41;6.30;;;3.30;;
60464;SDS011;46314;52.392;9.758;2022-10-17T11:42:11;6.97;;;3.40;;
60464;SDS011;46314;52.392;9.758;2022-10-17T11:44:42;5.45;;;2.90;;
60464;SDS011;46314;52.392;9.758;2022-10-17T11:47:10;5.18;;;2.80;;
60464;SDS011;46314;52.392;9.758;2022-10-17T11:49:48;4.85;;;3.20;;
60464;SDS011;46314;52.392;9.758;2022-10-17T11:52:22;6.65;;;3.47;;
60464;SDS011;46314;52.392;9.758;2022-10-17T11:55:20;4.57;;;3.20;;
60464;SDS011;46314;52.392;9.758;2022-10-17T11:57:54;4.63;;;3.53;;
60464;SDS011;46314;52.392;9.758;2022-10-17T12:00:29;8.07;;;3.35;;
60464;SDS011;46314;52.392;9.758;2022-10-17T12:03:12;4.82;;;2.88;;
60464;SDS011;46314;52.392;9.758;2022-10-17T12:05:51;5.55;;;3.50;;
60464;SDS011;46314;52.392;9.758;2022-10-17T12:08:24;5.13;;;3.45;;
60464;SDS011;46314;52.392;9.758;2022-10-17T12:10:57;4.63;;;2.88;;
60464;SDS011;46314;52.392;9.758;2022-10-17T12:13:51;5.55;;;3.65;;
60464;SDS011;46314;52.392;9.758;2022-10-17T12:19:28;4.25;;;3.22;;
60464;SDS011;46314;52.392;9.758;2022-10-17T12:21:59;5.35;;;3.28;;
60464;SDS011;46314;52.392;9.758;2022-10-17T12:24:32;9.88;;;4.00;;
60464;SDS011;46314;52.392;9.758;2022-10-17T12:30:13;7.03;;;3.63;;
60464;SDS011;46314;52.392;9.758;2022-10-17T12:35:42;4.82;;;3.38;;
60464;SDS011;46314;52.392;9.758;2022-10-17T12:38:19;5.78;;;3.45;;
60464;SDS011;46314;52.392;9.758;2022-10-17T12:40:54;7.88;;;3.55;;
60464;SDS011;46314;52.392;9.758;2022-10-17T12:46:44;8.38;;;3.75;;
60464;SDS011;46314;52.392;9.758;2022-10-17T12:49:19;8.80;;;4.05;;
60464;SDS011;46314;52.392;9.758;2022-10-17T12:52:16;4.60;;;3.20;;
60464;SDS011;46314;52.392;9.758;2022-10-17T12:54:47;8.30;;;3.97;;
60464;SDS011;46314;52.392;9.758;2022-10-17T12:57:37;6.80;;;3.83;;
60464;SDS011;46314;52.392;9.758;2022-10-17T13:00:15;6.72;;;4.43;;
60464;SDS011;46314;52.392;9.758;2022-10-17T13:02:45;4.65;;;3.10;;
60464;SDS011;46314;52.392;9.758;2022-10-17T13:05:15;9.68;;;4.10;;
60464;SDS011;46314;52.392;9.758;2022-10-17T13:07:47;7.65;;;3.85;;
60464;SDS011;46314;52.392;9.758;2022-10-17T13:10:20;7.40;;;3.63;;
60464;SDS011;46314;52.392;9.758;2022-10-17T13:12:48;6.35;;;3.30;;
60464;SDS011;46314;52.392;9.758;2022-10-17T13:15:18;6.78;;;3.65;;
60464;SDS011;46314;52.392;9.758;2022-10-17T13:17:53;7.03;;;3.50;;
60464;SDS011;46314;52.392;9.758;2022-10-17T13:20:22;7.95;;;4.10;;
60464;SDS011;46314;52.392;9.758;2022-10-17T13:22:56;5.15;;;3.03;;
60464;SDS011;46314;52.392;9.758;2022-10-17T13:25:24;7.65;;;4.10;;
60464;SDS011;46314;52.392;9.758;2022-10-17T13:28:02;6.07;;;3.40;;
60464;SDS011;46314;52.392;9.758;2022-10-17T13:30:32;6.38;;;3.70;;
60464;SDS011;46314;52.392;9.758;2022-10-17T13:33:01;4.97;;;3.60;;
60464;SDS011;46314;52.392;9.758;2022-10-17T13:35:29;7.93;;;4.03;;
60464;SDS011;46314;52.392;9.758;2022-10-17T13:38:17;7.63;;;3.97;;
60464;SDS011;46314;52.392;9.758;2022-10-17T13:40:50;5.25;;;3.50;;
60464;SDS011;46314;52.392;9.758;2022-10-17T13:43:17;10.32;;;4.47;;
60464;SDS011;46314;52.392;9.758;2022-10-17T13:45:47;5.40;;;3.42;;
60464;SDS011;46314;52.392;9.758;2022-10-17T13:48:17;9.93;;;3.58;;
60464;SDS011;46314;52.392;9.758;2022-10-17T13:50:46;8.27;;;3.97;;
60464;SDS011;46314;52.392;9.758;2022-10-17T13:53:15;5.50;;;3.97;;
60464;SDS011;46314;52.392;9.758;2022-10-17T13:55:56;8.90;;;4.13;;
60464;SDS011;46314;52.392;9.758;2022-10-17T13:58:45;7.70;;;4.18;;
60464;SDS011;46314;52.392;9.758;2022-10-17T14:01:12;8.98;;;3.67;;
60464;SDS011;46314;52.392;9.758;2022-10-17T14:03:40;10.20;;;4.90;;
60464;SDS011;46314;52.392;9.758;2022-10-17T14:06:15;6.28;;;3.90;;
60464;SDS011;46314;52.392;9.758;2022-10-17T14:08:53;6.40;;;4.20;;
60464;SDS011;46314;52.392;9.758;2022-10-17T14:11:26;10.93;;;5.63;;
60464;SDS011;46314;52.392;9.758;2022-10-17T14:13:57;10.02;;;4.75;;
60464;SDS011;46314;52.392;9.758;2022-10-17T14:16:25;5.75;;;4.60;;
60464;SDS011;46314;52.392;9.758;2022-10-17T14:18:58;5.13;;;3.90;;
60464;SDS011;46314;52.392;9.758;2022-10-17T14:21:25;6.32;;;3.90;;
60464;SDS011;46314;52.392;9.758;2022-10-17T14:24:13;6.32;;;3.95;;
60464;SDS011;46314;52.392;9.758;2022-10-17T14:26:49;9.60;;;5.00;;
60464;SDS011;46314;52.392;9.758;2022-10-17T14:29:20;5.68;;;5.05;;
60464;SDS011;46314;52.392;9.758;2022-10-17T14:31:48;6.65;;;4.97;;
60464;SDS011;46314;52.392;9.758;2022-10-17T14:34:15;6.07;;;4.20;;
60464;SDS011;46314;52.392;9.758;2022-10-17T14:36:46;7.63;;;4.57;;
60464;SDS011;46314;52.392;9.758;2022-10-17T14:39:17;11.02;;;4.80;;
60464;SDS011;46314;52.392;9.758;2022-10-17T14:41:46;7.28;;;4.30;;
60464;SDS011;46314;52.392;9.758;2022-10-17T14:44:17;7.70;;;4.45;;
60464;SDS011;46314;52.392;9.758;2022-10-17T14:46:46;7.00;;;3.92;;
60464;SDS011;46314;52.392;9.758;2022-10-17T14:49:18;6.85;;;5.28;;
60464;SDS011;46314;52.392;9.758;2022-10-17T14:54:50;7.03;;;4.93;;
60464;SDS011;46314;52.392;9.758;2022-10-17T14:57:18;7.15;;;4.25;;
60464;SDS011;46314;52.392;9.758;2022-10-17T14:59:50;7.22;;;4.70;;
60464;SDS011;46314;52.392;9.758;2022-10-17T15:02:20;8.90;;;4.68;;
60464;SDS011;46314;52.392;9.758;2022-10-17T15:04:47;7.28;;;4.25;;
60464;SDS011;46314;52.392;9.758;2022-10-17T15:07:14;11.80;;;5.07;;
60464;SDS011;46314;52.392;9.758;2022-10-17T15:09:41;8.82;;;4.53;;
60464;SDS011;46314;52.392;9.758;2022-10-17T15:12:12;7.05;;;4.82;;
60464;SDS011;46314;52.392;9.758;2022-10-17T15:14:40;8.23;;;5.00;;
60464;SDS011;46314;52.392;9.758;2022-10-17T15:17:09;8.27;;;4.97;;
60464;SDS011;46314;52.392;9.758;2022-10-17T15:19:38;7.32;;;4.38;;
60464;SDS011;46314;52.392;9.758;2022-10-17T15:22:05;8.07;;;5.05;;
60464;SDS011;46314;52.392;9.758;2022-10-17T15:24:31;8.57;;;4.88;;
60464;SDS011;46314;52.392;9.758;2022-10-17T15:26:58;8.82;;;4.88;;
60464;SDS011;46314;52.392;9.758;2022-10-17T15:29:24;9.30;;;5.13;;
60464;SDS011;46314;52.392;9.758;2022-10-17T15:31:51;8.35;;;5.07;;
60464;SDS011;46314;52.392;9.758;2022-10-17T15:34:18;8.75;;;5.07;;